TAF PAOM
PAOM 072331Z 0800/0824 28011KT P6SM FEW050 FM080600 06010KT P6SM SCT050 BKN100=
METAR PAOM
WC PAOM
WS PAOM
WV PAOM